OETR

Turaif Domestic Airport

Saudi Arabia
TAF OETR 222300Z 2300/2406 VRB03KT CAVOK BECMG 2306/2308 14012KT
Issued Valid From Valid To
Jan-22 @ 23:00 UTC
(8 hours ago)
Jan-23 @ 00:00 UTC
(7 hours ago)
Jan-24 @ 06:00 UTC
(in 23 hours)
Expired Click to View Jan-23 @ 00:00 to Jan-23 @ 06:00
TAF OETR 222300Z 2300/2406 VRB03KT CAVOK
Wind Visibility Clouds Conditions
Variable at 3 knots 10,000+ meters
  • No significant clouds
Becoming Jan-23 @ 06:00 to Jan-24 @ 06:00
BECMG 2306/2308 14012KT
Wind Visibility Clouds Conditions
140° at 12 knots 10,000+ meters
  • No significant clouds
TAF OETR 222300Z 2300/2406 VRB03KT CAVOK BECMG 2306/2308 14012KT
Issued Jan-22 @ 23:00 UTC
(8 hours ago)
Valid From Jan-23 @ 00:00 UTC
(7 hours ago)
Valid To Jan-24 @ 06:00 UTC
(in 23 hours)
Jan-23 @ 00:00 - Jan-23 @ 06:00
Wind Visibility
Variable at 3 knots 10,000+ meters
Clouds
  • No significant clouds
Conditions
Becoming Jan-23 @ 06:00 - Jan-24 @ 06:00
Wind Visibility
140° at 12 knots 10,000+ meters
Clouds
  • No significant clouds
Conditions